createdAt,value
2022-09-01T00:00:02.110Z,14.90
2022-09-01T00:02:30.747Z,15.00
2022-09-01T00:04:59.579Z,15.00
2022-09-01T00:07:30.164Z,14.90
2022-09-01T00:09:58.379Z,15.00
2022-09-01T00:12:28.826Z,14.90
2022-09-01T00:14:56.876Z,14.90
2022-09-01T00:17:25.127Z,14.90
2022-09-01T00:19:53.368Z,14.80
2022-09-01T00:22:21.372Z,14.80
2022-09-01T00:24:49.731Z,14.70
2022-09-01T00:27:17.917Z,14.70
2022-09-01T00:29:48.314Z,14.70
2022-09-01T00:32:16.369Z,14.70
2022-09-01T00:34:44.357Z,14.60
2022-09-01T00:37:12.599Z,14.70
2022-09-01T00:39:40.575Z,14.60
2022-09-01T00:42:08.688Z,14.70
2022-09-01T00:44:38.505Z,14.70
2022-09-01T00:47:08.770Z,14.70
2022-09-01T00:49:40.776Z,14.70
2022-09-01T00:52:12.065Z,14.70
2022-09-01T00:54:45.847Z,14.60
2022-09-01T00:57:14.161Z,14.50
2022-09-01T00:59:51.175Z,14.60
2022-09-01T01:02:20.754Z,14.60
2022-09-01T01:04:48.751Z,14.60
2022-09-01T01:07:17.756Z,14.60
2022-09-01T01:09:47.034Z,14.60
2022-09-01T01:12:18.622Z,14.60
2022-09-01T01:14:50.204Z,14.60
2022-09-01T01:17:21.261Z,14.50
2022-09-01T01:20:10.668Z,14.50
2022-09-01T01:23:05.624Z,14.50
2022-09-01T01:25:38.410Z,14.50
2022-09-01T01:28:14.177Z,14.50
2022-09-01T01:30:45.621Z,14.50
2022-09-01T01:33:13.651Z,14.50
2022-09-01T01:35:42.422Z,14.60
2022-09-01T01:38:11.241Z,14.50
2022-09-01T01:40:41.579Z,14.50
2022-09-01T01:43:11.585Z,14.30
2022-09-01T01:45:39.609Z,14.30
2022-09-01T01:48:08.704Z,14.30
2022-09-01T01:50:38.031Z,14.20
2022-09-01T01:53:10.832Z,14.20
2022-09-01T01:55:41.786Z,14.20
2022-09-01T01:58:12.230Z,14.30
2022-09-01T02:00:42.931Z,14.30
2022-09-01T02:03:12.840Z,14.40
2022-09-01T02:05:41.423Z,14.10
2022-09-01T02:08:11.475Z,14.10
2022-09-01T02:10:44.625Z,14.10
2022-09-01T02:13:16.821Z,14.20
2022-09-01T02:15:48.093Z,14.10
2022-09-01T02:18:19.638Z,14.10
2022-09-01T02:20:50.674Z,14.10
2022-09-01T02:23:23.515Z,14.10
2022-09-01T02:26:15.249Z,14.10
2022-09-01T02:28:43.361Z,14.10
2022-09-01T02:31:12.857Z,14.10
2022-09-01T02:33:45.615Z,14.20
2022-09-01T02:36:17.356Z,14.20
2022-09-01T02:38:53.800Z,14.30
2022-09-01T02:41:30.112Z,14.30
2022-09-01T02:44:02.265Z,14.30
2022-09-01T02:46:30.750Z,14.30
2022-09-01T02:49:00.679Z,14.30
2022-09-01T02:51:28.946Z,14.40
2022-09-01T02:53:57.198Z,14.40
2022-09-01T02:56:27.503Z,14.40
2022-09-01T02:58:56.132Z,14.30
2022-09-01T03:01:26.499Z,14.30
2022-09-01T03:03:57.137Z,14.40
2022-09-01T03:06:26.572Z,14.30
2022-09-01T03:08:59.777Z,14.30
2022-09-01T03:11:31.615Z,14.30
2022-09-01T03:14:00.025Z,14.40
2022-09-01T03:16:30.430Z,14.30
2022-09-01T03:18:58.916Z,14.40
2022-09-01T03:21:27.537Z,14.40
2022-09-01T03:23:55.743Z,14.40
2022-09-01T03:26:24.153Z,14.30
2022-09-01T03:28:53.809Z,14.30
2022-09-01T03:31:22.514Z,14.20
2022-09-01T03:33:51.057Z,14.10
2022-09-01T03:36:20.192Z,14.10
2022-09-01T03:38:49.689Z,14.10
2022-09-01T03:41:19.704Z,14.00
2022-09-01T03:43:48.597Z,14.10
2022-09-01T03:46:21.745Z,14.10
2022-09-01T03:48:51.769Z,14.10
2022-09-01T03:51:22.884Z,14.00
2022-09-01T03:53:54.478Z,13.90
2022-09-01T03:56:24.723Z,13.90
2022-09-01T03:58:53.461Z,13.80
2022-09-01T04:01:23.478Z,13.80
2022-09-01T04:03:52.984Z,13.80
2022-09-01T04:06:24.252Z,13.80
2022-09-01T04:08:56.908Z,13.80
2022-09-01T04:11:25.313Z,13.80
2022-09-01T04:13:53.804Z,14.00
2022-09-01T04:16:43.485Z,14.10
2022-09-01T04:19:20.126Z,14.10
2022-09-01T04:21:50.285Z,14.10
2022-09-01T04:24:19.346Z,14.10
2022-09-01T04:26:49.713Z,14.00
2022-09-01T04:29:18.812Z,13.90
2022-09-01T04:31:53.669Z,13.90
2022-09-01T04:34:22.571Z,13.90
2022-09-01T04:36:54.316Z,13.90
2022-09-01T04:39:23.539Z,13.90
2022-09-01T04:41:51.567Z,14.00
2022-09-01T04:44:20.191Z,14.00
2022-09-01T04:46:50.809Z,14.10
2022-09-01T04:49:22.339Z,14.10
2022-09-01T04:51:54.178Z,14.20
2022-09-01T04:54:23.795Z,14.30
2022-09-01T04:56:54.998Z,14.30
2022-09-01T04:59:27.189Z,14.40
2022-09-01T05:01:57.564Z,14.60
2022-09-01T05:04:28.798Z,14.60
2022-09-01T05:06:59.792Z,14.60
2022-09-01T05:09:29.653Z,14.60
2022-09-01T05:12:11.016Z,14.50
2022-09-01T05:14:42.508Z,14.50
2022-09-01T05:17:13.414Z,14.60
2022-09-01T05:19:45.086Z,14.50
2022-09-01T05:22:13.243Z,14.60
2022-09-01T05:24:42.314Z,14.70
2022-09-01T05:27:12.357Z,14.70
2022-09-01T05:29:41.773Z,14.70
2022-09-01T05:32:12.629Z,14.90
2022-09-01T05:34:45.227Z,15.00
2022-09-01T05:37:16.224Z,15.10
2022-09-01T05:39:44.267Z,15.00
2022-09-01T05:42:12.536Z,14.90
2022-09-01T05:44:44.080Z,14.70
2022-09-01T05:47:20.328Z,14.70
2022-09-01T05:49:50.510Z,14.70
2022-09-01T05:52:25.030Z,14.60
2022-09-01T05:54:55.568Z,14.60
2022-09-01T05:57:34.411Z,14.80
2022-09-01T06:00:10.944Z,14.80
2022-09-01T06:02:41.189Z,14.80
2022-09-01T06:05:10.961Z,15.00
2022-09-01T06:07:42.235Z,15.00
2022-09-01T06:10:11.092Z,15.10
2022-09-01T06:12:40.722Z,15.10
2022-09-01T06:15:15.900Z,15.20
2022-09-01T06:17:46.364Z,15.10
2022-09-01T06:20:14.688Z,15.20
2022-09-01T06:22:43.853Z,15.20
2022-09-01T06:25:12.009Z,15.10
2022-09-01T06:27:41.232Z,15.20
2022-09-01T06:30:14.998Z,15.30
2022-09-01T06:32:44.830Z,15.30
2022-09-01T06:35:15.826Z,15.30
2022-09-01T06:37:45.927Z,15.30
2022-09-01T06:40:18.190Z,15.30
2022-09-01T06:42:47.383Z,15.30
2022-09-01T06:45:16.459Z,15.40
2022-09-01T06:47:45.760Z,15.40
2022-09-01T06:51:14.509Z,15.40
2022-09-01T06:55:56.934Z,15.70
2022-09-01T06:58:25.340Z,15.80
2022-09-01T07:00:53.805Z,15.80
2022-09-01T07:03:22.651Z,15.80
2022-09-01T07:06:09.552Z,16.10
2022-09-01T07:09:19.857Z,16.30
2022-09-01T07:14:17.419Z,16.70
2022-09-01T07:16:51.733Z,17.20
2022-09-01T07:19:21.155Z,17.50
2022-09-01T07:24:40.157Z,18.30
2022-09-01T07:27:09.558Z,18.60
2022-09-01T07:29:39.347Z,18.80
2022-09-01T07:35:00.205Z,18.80
2022-09-01T07:43:19.021Z,19.10
2022-09-01T07:45:58.263Z,19.10
2022-09-01T07:48:36.669Z,19.00
2022-09-01T07:51:36.723Z,18.80
2022-09-01T07:54:06.965Z,18.80
2022-09-01T07:56:39.828Z,18.80
2022-09-01T07:59:08.118Z,18.50
2022-09-01T08:01:36.559Z,18.40
2022-09-01T08:04:05.077Z,18.20
2022-09-01T08:06:40.965Z,18.20
2022-09-01T08:09:11.970Z,18.10
2022-09-01T08:12:02.609Z,18.10
2022-09-01T08:14:34.859Z,18.10
2022-09-01T08:17:34.314Z,18.00
2022-09-01T08:19:51.916Z,17.90
2022-09-01T08:22:23.305Z,18.00
2022-09-01T08:24:53.564Z,18.00
2022-09-01T08:27:21.875Z,18.10
2022-09-01T08:29:50.022Z,18.10
2022-09-01T08:32:18.233Z,18.00
2022-09-01T08:34:46.232Z,18.10
2022-09-01T08:37:14.245Z,18.00
2022-09-01T08:39:42.493Z,18.00
2022-09-01T08:42:19.005Z,18.00
2022-09-01T08:44:58.562Z,18.10
2022-09-01T08:47:35.610Z,18.10
2022-09-01T08:50:09.122Z,18.10
2022-09-01T08:52:41.290Z,18.10
2022-09-01T08:55:15.422Z,18.30
2022-09-01T08:57:47.801Z,18.50
2022-09-01T09:00:20.290Z,18.80
2022-09-01T09:03:06.152Z,19.00
2022-09-01T09:05:44.461Z,19.30
2022-09-01T09:08:46.350Z,19.70
2022-09-01T09:11:25.732Z,19.90
2022-09-01T09:14:04.943Z,20.20
2022-09-01T09:16:37.010Z,20.50
2022-09-01T09:19:10.603Z,20.50
2022-09-01T09:21:40.815Z,20.90
2022-09-01T09:24:17.035Z,20.60
2022-09-01T09:26:50.522Z,20.70
2022-09-01T09:29:23.297Z,21.20
2022-09-01T09:32:04.584Z,21.80
2022-09-01T09:34:35.891Z,22.10
2022-09-01T09:37:23.270Z,22.50
2022-09-01T09:40:10.645Z,22.40
2022-09-01T09:42:39.927Z,23.40
2022-09-01T09:45:22.314Z,24.50
2022-09-01T09:47:50.444Z,26.90
2022-09-01T09:50:23.971Z,25.80
2022-09-01T09:52:55.775Z,26.40
2022-09-01T09:55:29.020Z,25.00
2022-09-01T09:58:00.545Z,23.00
2022-09-01T10:00:34.276Z,21.90
2022-09-01T10:03:10.105Z,23.10
2022-09-01T10:05:43.030Z,23.80
2022-09-01T10:08:14.884Z,26.00
2022-09-01T10:10:45.764Z,30.60
2022-09-01T10:13:29.094Z,34.00
2022-09-01T10:16:03.711Z,35.30
2022-09-01T10:18:37.878Z,33.50
2022-09-01T10:21:10.991Z,29.50
2022-09-01T10:23:41.481Z,25.90
2022-09-01T10:26:15.062Z,23.90
2022-09-01T10:28:51.336Z,22.60
2022-09-01T10:31:22.660Z,21.90
2022-09-01T10:33:51.497Z,21.30
2022-09-01T10:36:24.442Z,21.30
2022-09-01T10:38:54.531Z,21.50
2022-09-01T10:41:59.953Z,22.10
2022-09-01T10:44:34.127Z,22.90
2022-09-01T10:47:06.463Z,22.50
2022-09-01T10:50:09.697Z,21.90
2022-09-01T10:53:11.479Z,21.80
2022-09-01T10:55:46.590Z,22.00
2022-09-01T11:01:40.515Z,22.60
2022-09-01T11:04:07.962Z,22.70
2022-09-01T11:07:50.689Z,22.70
2022-09-01T11:10:38.544Z,21.90
2022-09-01T11:13:32.848Z,21.70
2022-09-01T11:19:42.068Z,21.50
2022-09-01T11:22:26.441Z,21.30
2022-09-01T11:25:12.986Z,21.40
2022-09-01T11:28:12.261Z,21.20
2022-09-01T11:30:52.887Z,20.90
2022-09-01T11:33:33.692Z,20.90
2022-09-01T11:36:05.263Z,20.80
2022-09-01T11:38:43.506Z,20.60
2022-09-01T11:41:24.138Z,20.60
2022-09-01T11:43:55.509Z,20.40
2022-09-01T11:46:28.073Z,20.40
2022-09-01T11:48:59.513Z,20.50
2022-09-01T11:51:28.871Z,20.80
2022-09-01T11:54:01.716Z,21.10
2022-09-01T11:56:30.321Z,20.90
2022-09-01T11:58:58.597Z,20.80
2022-09-01T12:01:34.837Z,20.60
2022-09-01T12:04:19.404Z,20.50
2022-09-01T12:06:56.417Z,20.10
2022-09-01T12:09:32.364Z,20.20
2022-09-01T12:12:01.597Z,20.20
2022-09-01T12:14:43.417Z,20.40
2022-09-01T12:17:22.244Z,20.80
2022-09-01T12:19:50.447Z,20.90
2022-09-01T12:22:22.582Z,21.10
2022-09-01T12:24:53.281Z,21.20
2022-09-01T12:27:23.268Z,21.10
2022-09-01T12:29:52.482Z,21.10
2022-09-01T12:32:21.099Z,21.10
2022-09-01T12:35:02.209Z,21.00
2022-09-01T12:37:33.652Z,20.90
2022-09-01T12:40:01.761Z,20.90
2022-09-01T12:42:40.774Z,21.10
2022-09-01T12:45:12.979Z,21.10
2022-09-01T12:47:51.487Z,20.90
2022-09-01T12:50:45.828Z,20.70
2022-09-01T12:53:25.998Z,20.80
2022-09-01T12:56:07.833Z,20.60
2022-09-01T12:58:35.880Z,20.50
2022-09-01T13:01:08.779Z,20.40
2022-09-01T13:04:06.253Z,20.30
2022-09-01T13:06:35.091Z,20.50
2022-09-01T13:09:04.867Z,20.70
2022-09-01T13:14:21.896Z,21.00
2022-09-01T13:16:49.926Z,21.10
2022-09-01T13:19:26.594Z,21.10
2022-09-01T13:21:55.628Z,21.10
2022-09-01T13:24:29.405Z,21.00
2022-09-01T13:29:47.689Z,20.70
2022-09-01T13:32:19.041Z,20.40
2022-09-01T13:34:48.474Z,20.20
2022-09-01T13:37:18.790Z,20.10
2022-09-01T13:39:48.619Z,20.10
2022-09-01T13:42:16.905Z,20.20
2022-09-01T13:44:48.302Z,20.30
2022-09-01T13:47:33.493Z,20.40
2022-09-01T13:50:11.504Z,20.60
2022-09-01T13:52:41.172Z,20.60
2022-09-01T13:55:13.625Z,20.50
2022-09-01T13:57:41.789Z,20.40
2022-09-01T14:00:13.361Z,20.30
2022-09-01T14:02:43.032Z,20.40
2022-09-01T14:05:11.433Z,20.50
2022-09-01T14:07:39.505Z,20.50
2022-09-01T14:10:08.933Z,20.60
2022-09-01T14:12:39.607Z,20.60
2022-09-01T14:15:14.996Z,20.60
2022-09-01T14:17:44.031Z,20.70
2022-09-01T14:20:14.116Z,20.90
2022-09-01T14:22:42.157Z,20.90
2022-09-01T14:25:13.373Z,20.80
2022-09-01T14:27:44.695Z,20.80
2022-09-01T14:30:17.168Z,20.80
2022-09-01T14:32:45.184Z,20.80
2022-09-01T14:35:13.791Z,20.80
2022-09-01T14:37:42.239Z,20.80
2022-09-01T14:40:15.573Z,20.80
2022-09-01T14:42:49.236Z,20.90
2022-09-01T14:45:18.736Z,20.80
2022-09-01T14:47:47.213Z,20.80
2022-09-01T14:50:19.894Z,20.80
2022-09-01T14:52:52.855Z,20.80
2022-09-01T14:55:21.757Z,20.90
2022-09-01T14:57:51.848Z,21.00
2022-09-01T15:00:20.492Z,21.10
2022-09-01T15:02:48.660Z,21.30
2022-09-01T15:05:16.988Z,21.10
2022-09-01T15:07:46.102Z,21.00
2022-09-01T15:10:16.167Z,20.70
2022-09-01T15:12:55.242Z,20.50
2022-09-01T15:15:23.694Z,20.40
2022-09-01T15:17:51.718Z,20.30
2022-09-01T15:20:37.527Z,20.30
2022-09-01T15:23:05.829Z,20.30
2022-09-01T15:25:34.171Z,20.20
2022-09-01T15:28:03.993Z,20.00
2022-09-01T15:30:31.975Z,20.00
2022-09-01T15:33:00.547Z,19.90
2022-09-01T15:35:29.439Z,19.90
2022-09-01T15:37:58.093Z,19.90
2022-09-01T15:40:27.912Z,19.80
2022-09-01T15:42:56.665Z,19.80
2022-09-01T15:45:28.729Z,20.10
2022-09-01T15:47:56.835Z,20.20
2022-09-01T15:50:27.503Z,20.40
2022-09-01T15:52:57.731Z,20.20
2022-09-01T15:55:30.269Z,20.20
2022-09-01T15:57:59.030Z,20.10
2022-09-01T16:00:29.569Z,19.90
2022-09-01T16:03:01.896Z,19.80
2022-09-01T16:05:30.444Z,19.70
2022-09-01T16:07:59.046Z,19.70
2022-09-01T16:10:27.563Z,19.60
2022-09-01T16:12:55.998Z,19.70
2022-09-01T16:15:25.500Z,19.60
2022-09-01T16:18:16.875Z,19.50
2022-09-01T16:20:55.069Z,19.50
2022-09-01T16:23:25.949Z,19.60
2022-09-01T16:25:54.744Z,19.60
2022-09-01T16:28:27.472Z,19.60
2022-09-01T16:31:01.914Z,19.50
2022-09-01T16:33:33.085Z,19.50
2022-09-01T16:36:17.776Z,19.30
2022-09-01T16:38:51.269Z,19.30
2022-09-01T16:41:41.111Z,19.20
2022-09-01T16:44:22.771Z,19.10
2022-09-01T16:46:56.582Z,19.10
2022-09-01T16:49:34.025Z,18.90
2022-09-01T16:52:05.714Z,18.90
2022-09-01T16:54:50.467Z,18.80
2022-09-01T16:57:27.008Z,18.90
2022-09-01T16:59:57.208Z,18.90
2022-09-01T17:02:38.530Z,18.80
2022-09-01T17:05:17.933Z,18.80
2022-09-01T17:07:52.482Z,18.60
2022-09-01T17:10:33.431Z,18.60
2022-09-01T17:13:17.307Z,18.50
2022-09-01T17:15:50.747Z,18.40
2022-09-01T17:18:24.717Z,18.30
2022-09-01T17:21:02.087Z,18.30
2022-09-01T17:23:38.230Z,18.10
2022-09-01T17:26:14.672Z,18.10
2022-09-01T17:28:48.950Z,17.90
2022-09-01T17:31:24.291Z,17.80
2022-09-01T17:34:03.006Z,17.60
2022-09-01T17:36:46.807Z,17.60
2022-09-01T17:39:27.866Z,17.50
2022-09-01T17:41:57.928Z,17.50
2022-09-01T17:44:35.639Z,17.50
2022-09-01T17:47:12.703Z,17.50
2022-09-01T17:49:52.188Z,17.50
2022-09-01T17:52:34.190Z,17.40
2022-09-01T17:55:11.226Z,17.30
2022-09-01T17:57:42.671Z,17.30
2022-09-01T18:00:23.520Z,17.20
2022-09-01T18:03:09.377Z,17.20
2022-09-01T18:05:41.135Z,17.20
2022-09-01T18:08:24.834Z,17.10
2022-09-01T18:10:59.431Z,17.10
2022-09-01T18:13:52.348Z,17.00
2022-09-01T18:16:24.940Z,17.10
2022-09-01T18:18:53.867Z,17.10
2022-09-01T18:21:24.824Z,17.10
2022-09-01T18:24:00.161Z,17.10
2022-09-01T18:26:32.577Z,17.10
2022-09-01T18:29:02.174Z,17.00
2022-09-01T18:31:52.552Z,17.00
2022-09-01T18:34:29.589Z,17.10
2022-09-01T18:37:05.154Z,17.00
2022-09-01T18:39:50.425Z,17.00
2022-09-01T18:42:29.709Z,16.90
2022-09-01T18:45:06.137Z,16.80
2022-09-01T18:47:36.417Z,16.90
2022-09-01T18:50:14.632Z,16.90
2022-09-01T18:53:09.960Z,16.80
2022-09-01T18:55:49.098Z,16.80
2022-09-01T18:58:29.703Z,16.80
2022-09-01T19:01:03.786Z,16.80
2022-09-01T19:03:35.816Z,16.80
2022-09-01T19:06:25.198Z,16.80
2022-09-01T19:09:07.815Z,16.80
2022-09-01T19:11:49.010Z,16.70
2022-09-01T19:14:28.092Z,16.60
2022-09-01T19:17:17.047Z,16.60
2022-09-01T19:19:51.005Z,16.60
2022-09-01T19:22:23.544Z,16.60
2022-09-01T19:25:18.249Z,16.50
2022-09-01T19:27:59.256Z,16.60
2022-09-01T19:30:27.385Z,16.60
2022-09-01T19:32:56.922Z,16.50
2022-09-01T19:35:25.689Z,16.50
2022-09-01T19:37:53.740Z,16.30
2022-09-01T19:40:29.523Z,16.20
2022-09-01T19:43:06.325Z,16.00
2022-09-01T19:45:47.301Z,16.00
2022-09-01T19:48:19.904Z,16.10
2022-09-01T19:50:52.026Z,16.00
2022-09-01T19:53:33.880Z,16.00
2022-09-01T19:56:08.163Z,15.90
2022-09-01T19:58:47.310Z,15.80
2022-09-01T20:01:22.031Z,15.80
2022-09-01T20:03:53.943Z,15.80
2022-09-01T20:06:33.444Z,15.70
2022-09-01T20:09:08.379Z,15.70
2022-09-01T20:11:45.588Z,15.60
2022-09-01T20:14:31.173Z,15.60
2022-09-01T20:17:02.128Z,15.50
2022-09-01T20:19:39.073Z,15.50
2022-09-01T20:22:21.665Z,15.50
2022-09-01T20:24:49.824Z,15.50
2022-09-01T20:27:34.009Z,15.50
2022-09-01T20:30:06.190Z,15.50
2022-09-01T20:32:40.310Z,15.40
2022-09-01T20:35:14.191Z,15.40
2022-09-01T20:37:47.309Z,15.40
2022-09-01T20:40:20.933Z,15.40
2022-09-01T20:43:10.014Z,15.30
2022-09-01T20:45:40.516Z,15.30
2022-09-01T20:48:14.425Z,15.20
2022-09-01T20:50:51.790Z,15.20
2022-09-01T20:53:35.320Z,15.20
2022-09-01T20:56:08.985Z,15.10
2022-09-01T20:58:41.635Z,15.10
2022-09-01T21:01:19.479Z,15.10
2022-09-01T21:03:59.587Z,15.10
2022-09-01T21:06:46.019Z,15.10
2022-09-01T21:09:20.509Z,15.00
2022-09-01T21:11:55.823Z,14.90
2022-09-01T21:14:38.748Z,14.90
2022-09-01T21:17:15.828Z,14.90
2022-09-01T21:19:54.918Z,14.80
2022-09-01T21:22:23.235Z,14.80
2022-09-01T21:24:51.636Z,14.70
2022-09-01T21:27:23.378Z,14.70
2022-09-01T21:29:58.252Z,14.60
2022-09-01T21:32:30.047Z,14.60
2022-09-01T21:34:59.167Z,14.60
2022-09-01T21:37:28.733Z,14.60
2022-09-01T21:39:58.192Z,14.50
2022-09-01T21:42:29.173Z,14.60
2022-09-01T21:44:58.568Z,14.50
2022-09-01T21:47:29.443Z,14.50
2022-09-01T21:49:57.481Z,14.40
2022-09-01T21:52:25.643Z,14.40
2022-09-01T21:54:53.681Z,14.40
2022-09-01T21:57:23.087Z,14.40
2022-09-01T21:59:51.636Z,14.40
2022-09-01T22:02:20.585Z,14.30
2022-09-01T22:04:50.173Z,14.30
2022-09-01T22:07:21.171Z,14.30
2022-09-01T22:09:49.935Z,14.20
2022-09-01T22:12:17.956Z,14.20
2022-09-01T22:14:45.943Z,14.10
2022-09-01T22:17:13.937Z,14.10
2022-09-01T22:19:41.977Z,14.00
2022-09-01T22:22:14.940Z,14.00
2022-09-01T22:24:43.129Z,14.00
2022-09-01T22:27:11.128Z,14.00
2022-09-01T22:29:39.610Z,14.00
2022-09-01T22:32:07.788Z,14.10
2022-09-01T22:34:36.418Z,14.00
2022-09-01T22:37:04.863Z,13.90
2022-09-01T22:39:34.204Z,13.90
2022-09-01T22:42:03.619Z,13.80
2022-09-01T22:44:31.624Z,13.80
2022-09-01T22:46:59.652Z,13.80
2022-09-01T22:49:27.683Z,13.80
2022-09-01T22:51:55.729Z,13.70
2022-09-01T22:54:23.852Z,13.80
2022-09-01T22:56:53.998Z,13.80
2022-09-01T22:59:24.437Z,13.90
2022-09-01T23:01:53.088Z,13.80
2022-09-01T23:04:21.639Z,13.80
2022-09-01T23:06:52.767Z,13.70
2022-09-01T23:09:21.503Z,13.70
2022-09-01T23:11:50.472Z,13.60
2022-09-01T23:14:19.894Z,13.60
2022-09-01T23:16:51.329Z,13.60
2022-09-01T23:19:20.267Z,13.50
2022-09-01T23:21:48.754Z,13.60
2022-09-01T23:24:19.753Z,13.70
2022-09-01T23:26:48.336Z,13.70
2022-09-01T23:29:16.513Z,13.60
2022-09-01T23:31:45.972Z,13.60
2022-09-01T23:34:14.306Z,13.50
2022-09-01T23:36:42.734Z,13.60
2022-09-01T23:39:10.761Z,13.60
2022-09-01T23:41:39.467Z,13.50
2022-09-01T23:44:10.490Z,13.40
2022-09-01T23:46:41.349Z,13.40
2022-09-01T23:49:11.036Z,13.40
2022-09-01T23:51:39.922Z,13.40
2022-09-01T23:54:08.132Z,13.40
2022-09-01T23:56:37.726Z,13.30
2022-09-01T23:59:06.338Z,13.30
